Terminal Aerodrome Forecast
Issued by NWS

Home | Current Version | Previous Version | Text Only | Print | Product List | Glossary On
Versions: 1 2 3 4 5 6 7 8 9 10 11 12 13 14 15 16 17 18
000
FTAK31 PAJN 301744
TAFAKT
TAF
PAKT 301744Z 3018/3118 14009KT P6SM VCSH SCT015 OVC040
      TEMPO 3018/3020 VRB04KT 6SM -SHRA BR FEW006 BKN015 OVC025
     FM302300 14015G25KT P6SM VCSH OVC020 WS020/16040KT
     FM310600 14020G30KT 4SM -RA BR OVC018 WS020/16050KT
      AMD LTD TO CLD VIS AND WIND 3106/3115=

USA.gov is the U.S. government's official web portal to all federal, state and local government web resources and services.